Lenox, Massachusetts
Current Conditions -  °F | °C
As of 11:32 PM on Wednesday 26 Nov 2014 (Local Time) from KPSF Reporting Station
Light Snow Light Snow  
Wind Chill: 21°   Ceiling: 3600
Heat Index: 28°   Visibility: 2mi
Dew Point: 25°   Wind: 7mph
Humidity: 88%   Direction: 300°WNW
Pressure: 29.78"   Gusts: NA
Location:  42.36°N, 73.28°W
Report Text: KPSF 270432Z AUTO 30006KT 2SM -SN BR FEW019 BKN036 OVC046 M02/M04 A2978 RMK AO2 SNE11B22 P0001 T10221039
Loading
Personal Weather Stations






























Interactive Weather Map New forecast layout! Learn more

10-Day Weather Forecast

Advertisements
Track Severe Weather on mobile